Kamimaru6 — JD2057 — position and weather

sailwx.info

Track history (hours):
 
Tides and Currents Weather Stations Pressure Air Temp Water Temp Dewpoint Dewpoint Depression Visibility Wind Speed Wind Dir Waves Ship Positions

Kamimaru6

Last reported at 2017-Dec-11 04:15 UTC. Time now 2017-Dec-14 16:46 UTC.
Position N 34°09' E 132°38'.

Length 58 m.

Type: Cargo ship. MMSI: 431501803.

Date/timePositionNaut miles runAvg speedWind from/ knotsBaromVisibWave heightAir tempDewpointWater temp
2017-Dec-11 04:15N 34°09' E 132°38'311.8
2017-Dec-11 03:57N 34°11' E 132°34'4 9.6
2017-Dec-11 03:30N 34°14' E 132°31'612.1
2017-Dec-11 03:00N 34°20' E 132°28'1 0.0
2017-Dec-10 11:48N 34°21' E 132°28'310.2
2017-Dec-10 11:30N 34°18' E 132°29'611.1
2017-Dec-10 11:00N 34°13' E 132°32'5 9.1
2017-Dec-10 10:30N 34°10' E 132°36'  
2017-Dec-07 20:15N 34°03' E 132°42'310.6
2017-Dec-07 20:00N 34°02' E 132°40'4910.1
2017-Dec-07 15:09N 33°48' E 131°43'212.0
2017-Dec-07 14:59N 33°49' E 131°41'611.8
2017-Dec-07 14:29N 33°50' E 131°34'611.6
2017-Dec-07 14:00N 33°50' E 131°27'611.4
2017-Dec-07 13:30N 33°51' E 131°20'511.2
2017-Dec-07 13:01N 33°52' E 131°14'611.2
2017-Dec-07 12:30N 33°55' E 131°08'611.3
2017-Dec-07 12:00N 33°58' E 131°02'510.4
2017-Dec-07 11:31N 33°56' E 130°56'4 8.8
2017-Dec-07 11:00N 33°57' E 130°51'611.6
2017-Dec-07 10:30N 33°58' E 130°44'611.8
2017-Dec-07 10:00N 33°57' E 130°37'611.5
2017-Dec-07 09:30N 33°56' E 130°30'611.4
2017-Dec-07 09:00N 33°51' E 130°25'612.0
2017-Dec-07 08:30N 33°47' E 130°21'711.6
2017-Dec-07 07:53N 33°41' E 130°16'411.5
2017-Dec-07 07:30N 33°38' E 130°20'4 7.5
2017-Dec-07 07:00N 33°38' E 130°24'0 0.0
2017-Dec-07 06:30N 33°38' E 130°24'0 0.0
2017-Dec-07 06:00N 33°38' E 130°24'0 0.0
2017-Dec-07 05:30N 33°38' E 130°24'0 0.0
2017-Dec-07 05:00N 33°38' E 130°24'0 0.0
2017-Dec-07 04:30N 33°38' E 130°24'0 0.0
2017-Dec-07 04:00N 33°38' E 130°24'0 0.0
2017-Dec-07 03:30N 33°38' E 130°24'0 0.0
2017-Dec-07 03:00N 33°38' E 130°24'0 0.0
2017-Dec-07 02:30N 33°38' E 130°24'0 0.0
2017-Dec-07 02:00N 33°38' E 130°24'0 0.0
2017-Dec-07 01:30N 33°38' E 130°24'0 0.0
2017-Dec-07 01:00N 33°38' E 130°24'0 0.0
2017-Dec-07 00:30N 33°38' E 130°24'0 0.0
2017-Dec-07 00:00N 33°38' E 130°24'0 0.0
2017-Dec-06 23:30N 33°38' E 130°24'0 0.0
2017-Dec-06 23:00N 33°38' E 130°24'0 0.0
2017-Dec-06 22:30N 33°38' E 130°24'0 0.0
2017-Dec-06 22:00N 33°38' E 130°24'0 0.0
2017-Dec-06 21:30N 33°38' E 130°24'0 0.0
2017-Dec-06 21:00N 33°38' E 130°24'  
2017-Dec-04 05:22N 34°28' E 134°31'611.5
2017-Dec-04 04:52N 34°30' E 134°38'411.5
2017-Dec-04 04:30N 34°32' E 134°42'611.8
2017-Dec-04 04:00N 34°34' E 134°49'611.2
2017-Dec-04 03:31N 34°36' E 134°55'510.5
2017-Dec-04 03:00N 34°37' E 135°01'611.0
2017-Dec-04 02:30N 34°36' E 135°08'612.4
2017-Dec-04 02:00N 34°36' E 135°15'612.1
2017-Dec-04 01:30N 34°36' E 135°23'4 6.8
2017-Dec-04 00:56N 34°35' E 135°27'0 0.0
2017-Dec-04 00:28N 34°35' E 135°27'0 0.0
2017-Dec-03 23:58N 34°35' E 135°27'0 0.0
2017-Dec-03 23:28N 34°35' E 135°27'0 0.0
2017-Dec-03 22:58N 34°35' E 135°27'0 0.0
2017-Dec-03 22:25N 34°35' E 135°27'0 0.0
2017-Dec-03 21:58N 34°35' E 135°27'0 0.0
2017-Dec-03 21:28N 34°35' E 135°27'0 0.0
2017-Dec-03 20:58N 34°35' E 135°27'0 0.0
2017-Dec-03 20:28N 34°35' E 135°27'0 0.0
2017-Dec-03 19:58N 34°35' E 135°27'0 0.0
2017-Dec-03 19:28N 34°35' E 135°27'0 0.0
2017-Dec-03 18:59N 34°35' E 135°27'0 0.0
2017-Dec-03 18:28N 34°35' E 135°27'0 0.0
2017-Dec-03 17:58N 34°35' E 135°27'0 0.0
2017-Dec-03 17:25N 34°35' E 135°27'0 0.0
2017-Dec-03 16:58N 34°35' E 135°27'0 0.0
2017-Dec-03 16:28N 34°35' E 135°27'0 0.0
2017-Dec-03 15:58N 34°35' E 135°27'0 0.0
2017-Dec-03 15:28N 34°35' E 135°27'0 0.0
2017-Dec-03 14:58N 34°35' E 135°27'0 0.0
2017-Dec-03 14:28N 34°35' E 135°27'0 0.0
2017-Dec-03 13:58N 34°35' E 135°27'0 0.0
2017-Dec-03 13:28N 34°35' E 135°27'0 0.0
2017-Dec-03 12:58N 34°35' E 135°27'0 0.0
2017-Dec-03 12:28N 34°35' E 135°27'2 4.8
2017-Dec-03 12:00N 34°36' E 135°25'510.2
2017-Dec-03 11:30N 34°35' E 135°18'510.9
2017-Dec-03 11:00N 34°35' E 135°12'611.6
2017-Dec-03 10:30N 34°35' E 135°05'4 8.6
2017-Dec-03 10:00N 34°37' E 135°00'5 9.3
2017-Dec-03 09:30N 34°35' E 134°55'5 9.8
2017-Dec-03 09:00N 34°33' E 134°50'510.7
2017-Dec-03 08:30N 34°31' E 134°44'611.0
2017-Dec-03 08:00N 34°29' E 134°37'4 0.2
2017-Dec-02 09:33N 34°29' E 134°33'112.7
2017-Dec-02 09:26N 34°30' E 134°34'512.7
2017-Dec-02 09:00N 34°32' E 134°41'612.9
2017-Dec-02 08:30N 34°34' E 134°48'713.4
2017-Dec-02 08:00N 34°36' E 134°55'611.4
2017-Dec-02 07:30N 34°37' E 135°02'611.7
2017-Dec-02 07:00N 34°37' E 135°09'611.8
2017-Dec-02 06:30N 34°38' E 135°17'611.5
2017-Dec-02 06:00N 34°38' E 135°23'4 6.6
2017-Dec-02 05:28N 34°40' E 135°27'0 0.0
2017-Dec-02 04:55N 34°40' E 135°27'0 0.0
2017-Dec-02 04:28N 34°40' E 135°27'0 0.0
2017-Dec-02 03:58N 34°40' E 135°27'0 0.0
2017-Dec-02 03:28N 34°40' E 135°27'0 0.0
2017-Dec-02 02:58N 34°40' E 135°27'0 0.0
2017-Dec-02 02:28N 34°40' E 135°27'0 0.0
2017-Dec-02 01:58N 34°40' E 135°27'0 0.0
2017-Dec-02 01:28N 34°40' E 135°27'0 0.0
2017-Dec-02 00:58N 34°40' E 135°27'0 0.0
2017-Dec-02 00:28N 34°40' E 135°27'0 0.0
2017-Dec-01 23:58N 34°40' E 135°27'0 0.0
2017-Dec-01 23:28N 34°40' E 135°27'0 0.0
2017-Dec-01 22:58N 34°40' E 135°27'0 0.0
2017-Dec-01 22:28N 34°40' E 135°27'0 0.0
2017-Dec-01 21:58N 34°40' E 135°27'0 0.0
2017-Dec-01 21:28N 34°40' E 135°27'0 0.0
2017-Dec-01 20:58N 34°40' E 135°27'0 0.0
2017-Dec-01 20:28N 34°40' E 135°27'0 0.0
2017-Dec-01 19:58N 34°40' E 135°27'0 0.0
2017-Dec-01 19:28N 34°40' E 135°27'0 0.0
2017-Dec-01 18:58N 34°40' E 135°27'0 0.0
2017-Dec-01 18:28N 34°40' E 135°27'0 0.0
2017-Dec-01 17:58N 34°40' E 135°27'0 0.0
2017-Dec-01 17:28N 34°40' E 135°27'0 0.1
2017-Dec-01 17:00N 34°40' E 135°27'510.3
2017-Dec-01 16:30N 34°37' E 135°22'611.0
2017-Dec-01 16:00N 34°35' E 135°16'611.8
2017-Dec-01 15:30N 34°35' E 135°09'713.6
2017-Dec-01 15:00N 34°37' E 135°01'714.7
2017-Dec-01 14:30N 34°34' E 134°52'612.8
2017-Dec-01 14:00N 34°32' E 134°45'612.1
2017-Dec-01 13:30N 34°30' E 134°38'  
Track history (hours):
 
Tides and Currents Weather Stations Pressure Air Temp Water Temp Dewpoint Dewpoint Depression Visibility Wind Speed Wind Dir Waves Ship Positions

Kamimaru6

Last reported at 2017-Dec-11 04:15 UTC. Time now 2017-Dec-14 16:46 UTC.
Position N 34°09' E 132°38'.

Length 58 m.

Type: Cargo ship. MMSI: 431501803.

Date/timePositionNaut miles runAvg speedWind from/ knotsBaromVisibWave heightAir tempDewpointWater temp
2017-Dec-11 04:15N 34°09' E 132°38'311.8
2017-Dec-11 03:57N 34°11' E 132°34'4 9.6
2017-Dec-11 03:30N 34°14' E 132°31'612.1
2017-Dec-11 03:00N 34°20' E 132°28'1 0.0
2017-Dec-10 11:48N 34°21' E 132°28'310.2
2017-Dec-10 11:30N 34°18' E 132°29'611.1
2017-Dec-10 11:00N 34°13' E 132°32'5 9.1
2017-Dec-10 10:30N 34°10' E 132°36'  
2017-Dec-07 20:15N 34°03' E 132°42'310.6
2017-Dec-07 20:00N 34°02' E 132°40'4910.1
2017-Dec-07 15:09N 33°48' E 131°43'212.0
2017-Dec-07 14:59N 33°49' E 131°41'611.8
2017-Dec-07 14:29N 33°50' E 131°34'611.6
2017-Dec-07 14:00N 33°50' E 131°27'611.4
2017-Dec-07 13:30N 33°51' E 131°20'511.2
2017-Dec-07 13:01N 33°52' E 131°14'611.2
2017-Dec-07 12:30N 33°55' E 131°08'611.3
2017-Dec-07 12:00N 33°58' E 131°02'510.4
2017-Dec-07 11:31N 33°56' E 130°56'4 8.8
2017-Dec-07 11:00N 33°57' E 130°51'611.6
2017-Dec-07 10:30N 33°58' E 130°44'611.8
2017-Dec-07 10:00N 33°57' E 130°37'611.5
2017-Dec-07 09:30N 33°56' E 130°30'611.4
2017-Dec-07 09:00N 33°51' E 130°25'612.0
2017-Dec-07 08:30N 33°47' E 130°21'711.6
2017-Dec-07 07:53N 33°41' E 130°16'411.5
2017-Dec-07 07:30N 33°38' E 130°20'4 7.5
2017-Dec-07 07:00N 33°38' E 130°24'0 0.0
2017-Dec-07 06:30N 33°38' E 130°24'0 0.0
2017-Dec-07 06:00N 33°38' E 130°24'0 0.0
2017-Dec-07 05:30N 33°38' E 130°24'0 0.0
2017-Dec-07 05:00N 33°38' E 130°24'0 0.0
2017-Dec-07 04:30N 33°38' E 130°24'0 0.0
2017-Dec-07 04:00N 33°38' E 130°24'0 0.0
2017-Dec-07 03:30N 33°38' E 130°24'0 0.0
2017-Dec-07 03:00N 33°38' E 130°24'0 0.0
2017-Dec-07 02:30N 33°38' E 130°24'0 0.0
2017-Dec-07 02:00N 33°38' E 130°24'0 0.0
2017-Dec-07 01:30N 33°38' E 130°24'0 0.0
2017-Dec-07 01:00N 33°38' E 130°24'0 0.0
2017-Dec-07 00:30N 33°38' E 130°24'0 0.0
2017-Dec-07 00:00N 33°38' E 130°24'0 0.0
2017-Dec-06 23:30N 33°38' E 130°24'0 0.0
2017-Dec-06 23:00N 33°38' E 130°24'0 0.0
2017-Dec-06 22:30N 33°38' E 130°24'0 0.0
2017-Dec-06 22:00N 33°38' E 130°24'0 0.0
2017-Dec-06 21:30N 33°38' E 130°24'0 0.0
2017-Dec-06 21:00N 33°38' E 130°24'  
2017-Dec-04 05:22N 34°28' E 134°31'611.5
2017-Dec-04 04:52N 34°30' E 134°38'411.5
2017-Dec-04 04:30N 34°32' E 134°42'611.8
2017-Dec-04 04:00N 34°34' E 134°49'611.2
2017-Dec-04 03:31N 34°36' E 134°55'510.5
2017-Dec-04 03:00N 34°37' E 135°01'611.0
2017-Dec-04 02:30N 34°36' E 135°08'612.4
2017-Dec-04 02:00N 34°36' E 135°15'612.1
2017-Dec-04 01:30N 34°36' E 135°23'4 6.8
2017-Dec-04 00:56N 34°35' E 135°27'0 0.0
2017-Dec-04 00:28N 34°35' E 135°27'0 0.0
2017-Dec-03 23:58N 34°35' E 135°27'0 0.0
2017-Dec-03 23:28N 34°35' E 135°27'0 0.0
2017-Dec-03 22:58N 34°35' E 135°27'0 0.0
2017-Dec-03 22:25N 34°35' E 135°27'0 0.0
2017-Dec-03 21:58N 34°35' E 135°27'0 0.0
2017-Dec-03 21:28N 34°35' E 135°27'0 0.0
2017-Dec-03 20:58N 34°35' E 135°27'0 0.0
2017-Dec-03 20:28N 34°35' E 135°27'0 0.0
2017-Dec-03 19:58N 34°35' E 135°27'0 0.0
2017-Dec-03 19:28N 34°35' E 135°27'0 0.0
2017-Dec-03 18:59N 34°35' E 135°27'0 0.0
2017-Dec-03 18:28N 34°35' E 135°27'0 0.0
2017-Dec-03 17:58N 34°35' E 135°27'0 0.0
2017-Dec-03 17:25N 34°35' E 135°27'0 0.0
2017-Dec-03 16:58N 34°35' E 135°27'0 0.0
2017-Dec-03 16:28N 34°35' E 135°27'0 0.0
2017-Dec-03 15:58N 34°35' E 135°27'0 0.0
2017-Dec-03 15:28N 34°35' E 135°27'0 0.0
2017-Dec-03 14:58N 34°35' E 135°27'0 0.0
2017-Dec-03 14:28N 34°35' E 135°27'0 0.0
2017-Dec-03 13:58N 34°35' E 135°27'0 0.0
2017-Dec-03 13:28N 34°35' E 135°27'0 0.0
2017-Dec-03 12:58N 34°35' E 135°27'0 0.0
2017-Dec-03 12:28N 34°35' E 135°27'2 4.8
2017-Dec-03 12:00N 34°36' E 135°25'510.2
2017-Dec-03 11:30N 34°35' E 135°18'510.9
2017-Dec-03 11:00N 34°35' E 135°12'611.6
2017-Dec-03 10:30N 34°35' E 135°05'4 8.6
2017-Dec-03 10:00N 34°37' E 135°00'5 9.3
2017-Dec-03 09:30N 34°35' E 134°55'5 9.8
2017-Dec-03 09:00N 34°33' E 134°50'510.7
2017-Dec-03 08:30N 34°31' E 134°44'611.0
2017-Dec-03 08:00N 34°29' E 134°37'4 0.2
2017-Dec-02 09:33N 34°29' E 134°33'112.7
2017-Dec-02 09:26N 34°30' E 134°34'512.7
2017-Dec-02 09:00N 34°32' E 134°41'612.9
2017-Dec-02 08:30N 34°34' E 134°48'713.4
2017-Dec-02 08:00N 34°36' E 134°55'611.4
2017-Dec-02 07:30N 34°37' E 135°02'611.7
2017-Dec-02 07:00N 34°37' E 135°09'611.8
2017-Dec-02 06:30N 34°38' E 135°17'611.5
2017-Dec-02 06:00N 34°38' E 135°23'4 6.6
2017-Dec-02 05:28N 34°40' E 135°27'0 0.0
2017-Dec-02 04:55N 34°40' E 135°27'0 0.0
2017-Dec-02 04:28N 34°40' E 135°27'0 0.0
2017-Dec-02 03:58N 34°40' E 135°27'0 0.0
2017-Dec-02 03:28N 34°40' E 135°27'0 0.0
2017-Dec-02 02:58N 34°40' E 135°27'0 0.0
2017-Dec-02 02:28N 34°40' E 135°27'0 0.0
2017-Dec-02 01:58N 34°40' E 135°27'0 0.0
2017-Dec-02 01:28N 34°40' E 135°27'0 0.0
2017-Dec-02 00:58N 34°40' E 135°27'0 0.0
2017-Dec-02 00:28N 34°40' E 135°27'0 0.0
2017-Dec-01 23:58N 34°40' E 135°27'0 0.0
2017-Dec-01 23:28N 34°40' E 135°27'0 0.0
2017-Dec-01 22:58N 34°40' E 135°27'0 0.0
2017-Dec-01 22:28N 34°40' E 135°27'0 0.0
2017-Dec-01 21:58N 34°40' E 135°27'0 0.0
2017-Dec-01 21:28N 34°40' E 135°27'0 0.0
2017-Dec-01 20:58N 34°40' E 135°27'0 0.0
2017-Dec-01 20:28N 34°40' E 135°27'0 0.0
2017-Dec-01 19:58N 34°40' E 135°27'0 0.0
2017-Dec-01 19:28N 34°40' E 135°27'0 0.0
2017-Dec-01 18:58N 34°40' E 135°27'0 0.0
2017-Dec-01 18:28N 34°40' E 135°27'0 0.0
2017-Dec-01 17:58N 34°40' E 135°27'0 0.0
2017-Dec-01 17:28N 34°40' E 135°27'0 0.1
2017-Dec-01 17:00N 34°40' E 135°27'510.3
2017-Dec-01 16:30N 34°37' E 135°22'611.0
2017-Dec-01 16:00N 34°35' E 135°16'611.8
2017-Dec-01 15:30N 34°35' E 135°09'713.6
2017-Dec-01 15:00N 34°37' E 135°01'714.7
2017-Dec-01 14:30N 34°34' E 134°52'612.8
2017-Dec-01 14:00N 34°32' E 134°45'612.1
2017-Dec-01 13:30N 34°30' E 134°38'  

Dump ship's entire track history